sensor_id;sensor_type;location;lat;lon;timestamp;P1;durP1;ratioP1;P2;durP2;ratioP2
1703;SDS011;849;48.780;9.216;2022-12-29T00:02:10;7.80;;;0.30;;
1703;SDS011;849;48.780;9.216;2022-12-29T00:04:37;7.80;;;0.30;;
1703;SDS011;849;48.780;9.216;2022-12-29T00:07:03;7.80;;;0.40;;
1703;SDS011;849;48.780;9.216;2022-12-29T00:09:29;7.77;;;0.30;;
1703;SDS011;849;48.780;9.216;2022-12-29T00:11:55;7.77;;;0.30;;
1703;SDS011;849;48.780;9.216;2022-12-29T00:14:21;7.73;;;0.40;;
1703;SDS011;849;48.780;9.216;2022-12-29T00:17:05;7.80;;;0.30;;
1703;SDS011;849;48.780;9.216;2022-12-29T00:19:31;7.87;;;0.43;;
1703;SDS011;849;48.780;9.216;2022-12-29T00:22:15;7.80;;;0.57;;
1703;SDS011;849;48.780;9.216;2022-12-29T00:24:59;7.83;;;0.30;;
1703;SDS011;849;48.780;9.216;2022-12-29T00:27:34;7.33;;;0.40;;
1703;SDS011;849;48.780;9.216;2022-12-29T00:30:20;7.43;;;0.30;;
1703;SDS011;849;48.780;9.216;2022-12-29T00:33:12;7.50;;;0.30;;
1703;SDS011;849;48.780;9.216;2022-12-29T00:36:07;7.50;;;0.30;;
1703;SDS011;849;48.780;9.216;2022-12-29T00:38:38;7.20;;;0.30;;
1703;SDS011;849;48.780;9.216;2022-12-29T00:41:28;7.33;;;0.60;;
1703;SDS011;849;48.780;9.216;2022-12-29T00:44:12;7.30;;;0.33;;
1703;SDS011;849;48.780;9.216;2022-12-29T00:46:39;7.33;;;0.30;;
1703;SDS011;849;48.780;9.216;2022-12-29T00:49:07;7.30;;;0.30;;
1703;SDS011;849;48.780;9.216;2022-12-29T00:51:53;7.30;;;0.60;;
1703;SDS011;849;48.780;9.216;2022-12-29T00:54:20;7.27;;;0.30;;
1703;SDS011;849;48.780;9.216;2022-12-29T00:56:49;7.30;;;0.40;;
1703;SDS011;849;48.780;9.216;2022-12-29T00:59:16;7.30;;;0.40;;
1703;SDS011;849;48.780;9.216;2022-12-29T01:01:42;7.33;;;0.57;;
1703;SDS011;849;48.780;9.216;2022-12-29T01:04:08;7.17;;;0.30;;
1703;SDS011;849;48.780;9.216;2022-12-29T01:06:35;7.17;;;0.30;;
1703;SDS011;849;48.780;9.216;2022-12-29T01:09:02;6.97;;;0.30;;
1703;SDS011;849;48.780;9.216;2022-12-29T01:11:46;7.07;;;0.30;;
1703;SDS011;849;48.780;9.216;2022-12-29T01:14:12;7.07;;;0.30;;
1703;SDS011;849;48.780;9.216;2022-12-29T01:16:38;6.83;;;0.30;;
1703;SDS011;849;48.780;9.216;2022-12-29T01:19:03;6.90;;;0.50;;
1703;SDS011;849;48.780;9.216;2022-12-29T01:21:29;6.53;;;0.30;;
1703;SDS011;849;48.780;9.216;2022-12-29T01:23:55;6.50;;;0.77;;
1703;SDS011;849;48.780;9.216;2022-12-29T01:26:21;6.40;;;0.30;;
1703;SDS011;849;48.780;9.216;2022-12-29T01:28:46;6.50;;;0.30;;
1703;SDS011;849;48.780;9.216;2022-12-29T01:31:13;6.80;;;1.33;;
1703;SDS011;849;48.780;9.216;2022-12-29T01:33:40;6.63;;;0.30;;
1703;SDS011;849;48.780;9.216;2022-12-29T01:36:08;6.47;;;0.30;;
1703;SDS011;849;48.780;9.216;2022-12-29T01:38:36;6.60;;;0.30;;
1703;SDS011;849;48.780;9.216;2022-12-29T01:41:03;6.70;;;0.60;;
1703;SDS011;849;48.780;9.216;2022-12-29T01:46:11;6.10;;;0.40;;
1703;SDS011;849;48.780;9.216;2022-12-29T01:48:49;6.20;;;0.30;;
1703;SDS011;849;48.780;9.216;2022-12-29T01:51:18;6.20;;;0.30;;
1703;SDS011;849;48.780;9.216;2022-12-29T01:53:46;6.20;;;0.40;;
1703;SDS011;849;48.780;9.216;2022-12-29T01:56:12;6.23;;;0.30;;
1703;SDS011;849;48.780;9.216;2022-12-29T01:58:42;6.13;;;0.67;;
1703;SDS011;849;48.780;9.216;2022-12-29T02:01:12;6.23;;;0.30;;
1703;SDS011;849;48.780;9.216;2022-12-29T02:03:39;6.07;;;0.30;;
1703;SDS011;849;48.780;9.216;2022-12-29T02:06:10;6.20;;;0.30;;
1703;SDS011;849;48.780;9.216;2022-12-29T02:08:49;6.23;;;0.30;;
1703;SDS011;849;48.780;9.216;2022-12-29T02:11:17;6.27;;;0.30;;
1703;SDS011;849;48.780;9.216;2022-12-29T02:13:44;6.23;;;0.30;;
1703;SDS011;849;48.780;9.216;2022-12-29T02:21:46;6.27;;;0.30;;
1703;SDS011;849;48.780;9.216;2022-12-29T02:27:29;6.33;;;0.30;;
1703;SDS011;849;48.780;9.216;2022-12-29T02:30:29;6.20;;;0.30;;
1703;SDS011;849;48.780;9.216;2022-12-29T02:33:20;6.27;;;0.30;;
1703;SDS011;849;48.780;9.216;2022-12-29T02:36:07;6.60;;;1.17;;
1703;SDS011;849;48.780;9.216;2022-12-29T02:38:58;6.40;;;0.80;;
1703;SDS011;849;48.780;9.216;2022-12-29T02:41:31;6.20;;;0.40;;
1703;SDS011;849;48.780;9.216;2022-12-29T02:46:58;6.20;;;0.30;;
1703;SDS011;849;48.780;9.216;2022-12-29T02:49:33;6.30;;;0.40;;
1703;SDS011;849;48.780;9.216;2022-12-29T02:52:04;6.20;;;0.30;;
1703;SDS011;849;48.780;9.216;2022-12-29T02:54:35;6.20;;;0.30;;
1703;SDS011;849;48.780;9.216;2022-12-29T02:59:51;6.10;;;0.30;;
1703;SDS011;849;48.780;9.216;2022-12-29T03:05:15;6.20;;;0.60;;
1703;SDS011;849;48.780;9.216;2022-12-29T03:10:30;5.90;;;0.30;;
1703;SDS011;849;48.780;9.216;2022-12-29T03:13:05;5.77;;;0.43;;
1703;SDS011;849;48.780;9.216;2022-12-29T03:18:46;5.70;;;0.30;;
1703;SDS011;849;48.780;9.216;2022-12-29T03:21:37;5.87;;;0.30;;
1703;SDS011;849;48.780;9.216;2022-12-29T03:24:28;5.90;;;0.30;;
1703;SDS011;849;48.780;9.216;2022-12-29T03:26:57;5.70;;;0.30;;
1703;SDS011;849;48.780;9.216;2022-12-29T03:29:26;5.87;;;0.30;;
1703;SDS011;849;48.780;9.216;2022-12-29T03:31:55;5.60;;;0.30;;
1703;SDS011;849;48.780;9.216;2022-12-29T03:34:22;5.67;;;0.30;;
1703;SDS011;849;48.780;9.216;2022-12-29T03:36:58;5.87;;;0.30;;
1703;SDS011;849;48.780;9.216;2022-12-29T03:39:27;5.67;;;0.30;;
1703;SDS011;849;48.780;9.216;2022-12-29T03:42:01;5.73;;;0.30;;
1703;SDS011;849;48.780;9.216;2022-12-29T03:44:33;5.70;;;0.30;;
1703;SDS011;849;48.780;9.216;2022-12-29T03:47:02;5.67;;;0.40;;
1703;SDS011;849;48.780;9.216;2022-12-29T03:49:28;5.70;;;0.30;;
1703;SDS011;849;48.780;9.216;2022-12-29T03:51:54;5.67;;;0.30;;
1703;SDS011;849;48.780;9.216;2022-12-29T03:54:19;5.83;;;0.50;;
1703;SDS011;849;48.780;9.216;2022-12-29T03:56:45;5.70;;;0.30;;
1703;SDS011;849;48.780;9.216;2022-12-29T03:59:11;5.50;;;0.30;;
1703;SDS011;849;48.780;9.216;2022-12-29T04:01:36;5.67;;;0.30;;
1703;SDS011;849;48.780;9.216;2022-12-29T04:04:03;5.70;;;0.40;;
1703;SDS011;849;48.780;9.216;2022-12-29T04:06:28;5.73;;;0.30;;
1703;SDS011;849;48.780;9.216;2022-12-29T04:08:54;5.80;;;0.30;;
1703;SDS011;849;48.780;9.216;2022-12-29T04:11:20;6.97;;;2.30;;
1703;SDS011;849;48.780;9.216;2022-12-29T04:13:46;5.83;;;0.30;;
1703;SDS011;849;48.780;9.216;2022-12-29T04:16:12;5.73;;;0.30;;
1703;SDS011;849;48.780;9.216;2022-12-29T04:18:43;6.00;;;0.70;;
1703;SDS011;849;48.780;9.216;2022-12-29T04:21:09;5.67;;;0.30;;
1703;SDS011;849;48.780;9.216;2022-12-29T04:23:35;6.40;;;1.03;;
1703;SDS011;849;48.780;9.216;2022-12-29T04:26:02;5.87;;;0.30;;
1703;SDS011;849;48.780;9.216;2022-12-29T04:28:29;5.90;;;0.30;;
1703;SDS011;849;48.780;9.216;2022-12-29T04:30:54;5.80;;;0.30;;
1703;SDS011;849;48.780;9.216;2022-12-29T04:33:21;5.80;;;0.30;;
1703;SDS011;849;48.780;9.216;2022-12-29T04:35:46;5.97;;;0.30;;
1703;SDS011;849;48.780;9.216;2022-12-29T04:38:12;6.00;;;0.40;;
1703;SDS011;849;48.780;9.216;2022-12-29T04:40:40;6.10;;;0.50;;
1703;SDS011;849;48.780;9.216;2022-12-29T04:43:07;6.07;;;0.30;;
1703;SDS011;849;48.780;9.216;2022-12-29T04:45:33;6.30;;;0.60;;
1703;SDS011;849;48.780;9.216;2022-12-29T04:47:59;6.10;;;0.30;;
1703;SDS011;849;48.780;9.216;2022-12-29T04:50:24;6.10;;;0.30;;
1703;SDS011;849;48.780;9.216;2022-12-29T04:52:50;6.10;;;0.30;;
1703;SDS011;849;48.780;9.216;2022-12-29T04:55:16;6.13;;;0.30;;
1703;SDS011;849;48.780;9.216;2022-12-29T04:57:41;6.10;;;0.30;;
1703;SDS011;849;48.780;9.216;2022-12-29T05:00:07;6.17;;;0.30;;
1703;SDS011;849;48.780;9.216;2022-12-29T05:02:36;6.20;;;0.30;;
1703;SDS011;849;48.780;9.216;2022-12-29T05:05:03;6.50;;;0.60;;
1703;SDS011;849;48.780;9.216;2022-12-29T05:07:29;6.20;;;0.30;;
1703;SDS011;849;48.780;9.216;2022-12-29T05:09:54;6.23;;;0.30;;
1703;SDS011;849;48.780;9.216;2022-12-29T05:12:20;6.27;;;0.30;;
1703;SDS011;849;48.780;9.216;2022-12-29T05:14:46;6.23;;;0.30;;
1703;SDS011;849;48.780;9.216;2022-12-29T05:17:11;6.23;;;0.30;;
1703;SDS011;849;48.780;9.216;2022-12-29T05:19:37;7.00;;;0.83;;
1703;SDS011;849;48.780;9.216;2022-12-29T05:22:03;7.13;;;1.80;;
1703;SDS011;849;48.780;9.216;2022-12-29T05:24:29;6.30;;;0.30;;
1703;SDS011;849;48.780;9.216;2022-12-29T05:26:55;6.30;;;0.30;;
1703;SDS011;849;48.780;9.216;2022-12-29T05:29:20;6.70;;;0.50;;
1703;SDS011;849;48.780;9.216;2022-12-29T05:31:46;6.40;;;0.57;;
1703;SDS011;849;48.780;9.216;2022-12-29T05:34:11;6.33;;;0.30;;
1703;SDS011;849;48.780;9.216;2022-12-29T05:36:37;8.50;;;1.03;;
1703;SDS011;849;48.780;9.216;2022-12-29T05:39:03;7.40;;;1.37;;
1703;SDS011;849;48.780;9.216;2022-12-29T05:41:29;6.40;;;0.40;;
1703;SDS011;849;48.780;9.216;2022-12-29T05:43:55;6.37;;;0.30;;
1703;SDS011;849;48.780;9.216;2022-12-29T05:46:20;6.57;;;0.40;;
1703;SDS011;849;48.780;9.216;2022-12-29T05:48:46;6.50;;;0.30;;
1703;SDS011;849;48.780;9.216;2022-12-29T05:51:12;6.57;;;0.30;;
1703;SDS011;849;48.780;9.216;2022-12-29T05:53:37;6.60;;;0.30;;
1703;SDS011;849;48.780;9.216;2022-12-29T05:56:03;6.53;;;0.30;;
1703;SDS011;849;48.780;9.216;2022-12-29T05:58:29;6.60;;;0.40;;
1703;SDS011;849;48.780;9.216;2022-12-29T06:00:55;6.50;;;0.30;;
1703;SDS011;849;48.780;9.216;2022-12-29T06:03:20;6.43;;;0.30;;
1703;SDS011;849;48.780;9.216;2022-12-29T06:05:46;7.53;;;2.00;;
1703;SDS011;849;48.780;9.216;2022-12-29T06:08:12;7.97;;;1.90;;
1703;SDS011;849;48.780;9.216;2022-12-29T06:10:37;6.43;;;0.30;;
1703;SDS011;849;48.780;9.216;2022-12-29T06:13:03;6.50;;;0.50;;
1703;SDS011;849;48.780;9.216;2022-12-29T06:15:30;6.33;;;0.40;;
1703;SDS011;849;48.780;9.216;2022-12-29T06:17:57;6.33;;;0.30;;
1703;SDS011;849;48.780;9.216;2022-12-29T06:20:23;6.40;;;0.30;;
1703;SDS011;849;48.780;9.216;2022-12-29T06:22:49;6.20;;;0.30;;
1703;SDS011;849;48.780;9.216;2022-12-29T06:25:14;6.30;;;0.30;;
1703;SDS011;849;48.780;9.216;2022-12-29T06:27:41;6.20;;;0.30;;
1703;SDS011;849;48.780;9.216;2022-12-29T06:30:07;6.20;;;0.30;;
1703;SDS011;849;48.780;9.216;2022-12-29T06:32:34;6.23;;;0.30;;
1703;SDS011;849;48.780;9.216;2022-12-29T06:35:00;6.27;;;0.30;;
1703;SDS011;849;48.780;9.216;2022-12-29T06:37:27;6.23;;;0.30;;
1703;SDS011;849;48.780;9.216;2022-12-29T06:39:52;6.20;;;0.30;;
1703;SDS011;849;48.780;9.216;2022-12-29T06:42:18;6.23;;;0.30;;
1703;SDS011;849;48.780;9.216;2022-12-29T06:44:43;6.17;;;0.30;;
1703;SDS011;849;48.780;9.216;2022-12-29T06:47:09;6.23;;;0.30;;
1703;SDS011;849;48.780;9.216;2022-12-29T06:49:35;6.20;;;0.30;;
1703;SDS011;849;48.780;9.216;2022-12-29T06:52:01;6.20;;;0.30;;
1703;SDS011;849;48.780;9.216;2022-12-29T06:54:29;6.07;;;0.30;;
1703;SDS011;849;48.780;9.216;2022-12-29T06:56:55;6.17;;;0.40;;
1703;SDS011;849;48.780;9.216;2022-12-29T06:59:21;6.07;;;0.30;;
1703;SDS011;849;48.780;9.216;2022-12-29T07:01:46;6.17;;;0.50;;
1703;SDS011;849;48.780;9.216;2022-12-29T07:04:12;6.10;;;0.30;;
1703;SDS011;849;48.780;9.216;2022-12-29T07:06:38;6.10;;;0.30;;
1703;SDS011;849;48.780;9.216;2022-12-29T07:09:05;6.60;;;1.23;;
1703;SDS011;849;48.780;9.216;2022-12-29T07:11:31;6.13;;;0.30;;
1703;SDS011;849;48.780;9.216;2022-12-29T07:13:57;6.10;;;0.30;;
1703;SDS011;849;48.780;9.216;2022-12-29T07:16:23;6.43;;;1.03;;
1703;SDS011;849;48.780;9.216;2022-12-29T07:18:48;6.17;;;0.30;;
1703;SDS011;849;48.780;9.216;2022-12-29T07:21:14;6.13;;;0.40;;
1703;SDS011;849;48.780;9.216;2022-12-29T07:23:39;6.17;;;0.30;;
1703;SDS011;849;48.780;9.216;2022-12-29T07:26:06;6.13;;;0.30;;
1703;SDS011;849;48.780;9.216;2022-12-29T07:28:34;6.17;;;0.30;;
1703;SDS011;849;48.780;9.216;2022-12-29T07:31:01;6.10;;;0.30;;
1703;SDS011;849;48.780;9.216;2022-12-29T07:33:29;6.13;;;0.30;;
1703;SDS011;849;48.780;9.216;2022-12-29T07:35:56;6.17;;;0.30;;
1703;SDS011;849;48.780;9.216;2022-12-29T07:38:21;6.30;;;0.60;;
1703;SDS011;849;48.780;9.216;2022-12-29T07:40:47;6.20;;;0.30;;
1703;SDS011;849;48.780;9.216;2022-12-29T07:43:13;6.20;;;0.30;;
1703;SDS011;849;48.780;9.216;2022-12-29T07:45:38;6.17;;;0.30;;
1703;SDS011;849;48.780;9.216;2022-12-29T07:48:05;6.20;;;0.60;;
1703;SDS011;849;48.780;9.216;2022-12-29T07:50:33;6.37;;;0.40;;
1703;SDS011;849;48.780;9.216;2022-12-29T07:52:59;6.20;;;0.30;;
1703;SDS011;849;48.780;9.216;2022-12-29T07:55:25;6.20;;;0.30;;
1703;SDS011;849;48.780;9.216;2022-12-29T07:57:52;6.23;;;0.30;;
1703;SDS011;849;48.780;9.216;2022-12-29T08:00:19;6.20;;;0.30;;
1703;SDS011;849;48.780;9.216;2022-12-29T08:02:45;6.20;;;0.30;;
1703;SDS011;849;48.780;9.216;2022-12-29T08:05:11;6.17;;;0.30;;
1703;SDS011;849;48.780;9.216;2022-12-29T08:07:37;6.20;;;0.30;;
1703;SDS011;849;48.780;9.216;2022-12-29T08:10:02;6.13;;;0.30;;
1703;SDS011;849;48.780;9.216;2022-12-29T08:12:28;6.20;;;0.30;;
1703;SDS011;849;48.780;9.216;2022-12-29T08:14:54;6.13;;;0.30;;
1703;SDS011;849;48.780;9.216;2022-12-29T08:17:20;6.70;;;0.50;;
1703;SDS011;849;48.780;9.216;2022-12-29T08:19:45;6.20;;;0.40;;
1703;SDS011;849;48.780;9.216;2022-12-29T08:22:12;6.20;;;0.30;;
1703;SDS011;849;48.780;9.216;2022-12-29T08:24:39;6.23;;;0.30;;
1703;SDS011;849;48.780;9.216;2022-12-29T08:27:04;6.20;;;0.30;;
1703;SDS011;849;48.780;9.216;2022-12-29T08:29:30;6.20;;;0.30;;
1703;SDS011;849;48.780;9.216;2022-12-29T08:31:56;6.20;;;0.30;;
1703;SDS011;849;48.780;9.216;2022-12-29T08:34:22;6.20;;;0.30;;
1703;SDS011;849;48.780;9.216;2022-12-29T08:36:47;6.40;;;0.80;;
1703;SDS011;849;48.780;9.216;2022-12-29T08:39:13;6.30;;;0.50;;
1703;SDS011;849;48.780;9.216;2022-12-29T08:41:39;6.20;;;0.30;;
1703;SDS011;849;48.780;9.216;2022-12-29T08:44:04;6.23;;;0.30;;
1703;SDS011;849;48.780;9.216;2022-12-29T08:46:30;6.17;;;0.30;;
1703;SDS011;849;48.780;9.216;2022-12-29T08:48:56;6.20;;;0.30;;
1703;SDS011;849;48.780;9.216;2022-12-29T08:51:22;6.20;;;0.30;;
1703;SDS011;849;48.780;9.216;2022-12-29T08:53:48;6.20;;;0.30;;
1703;SDS011;849;48.780;9.216;2022-12-29T08:56:13;6.20;;;0.30;;
1703;SDS011;849;48.780;9.216;2022-12-29T08:58:39;6.20;;;0.30;;
1703;SDS011;849;48.780;9.216;2022-12-29T09:01:05;6.23;;;0.30;;
1703;SDS011;849;48.780;9.216;2022-12-29T09:03:31;9.80;;;2.77;;
1703;SDS011;849;48.780;9.216;2022-12-29T09:05:57;6.20;;;0.30;;
1703;SDS011;849;48.780;9.216;2022-12-29T09:08:23;6.20;;;0.50;;
1703;SDS011;849;48.780;9.216;2022-12-29T09:10:49;6.13;;;0.30;;
1703;SDS011;849;48.780;9.216;2022-12-29T09:13:15;6.13;;;0.30;;
1703;SDS011;849;48.780;9.216;2022-12-29T09:15:41;6.13;;;0.30;;
1703;SDS011;849;48.780;9.216;2022-12-29T09:18:07;6.20;;;0.50;;
1703;SDS011;849;48.780;9.216;2022-12-29T09:20:34;6.30;;;0.60;;
1703;SDS011;849;48.780;9.216;2022-12-29T09:22:59;9.13;;;0.60;;
1703;SDS011;849;48.780;9.216;2022-12-29T09:25:25;6.10;;;0.30;;
1703;SDS011;849;48.780;9.216;2022-12-29T09:27:51;6.07;;;0.30;;
1703;SDS011;849;48.780;9.216;2022-12-29T09:30:18;6.50;;;0.30;;
1703;SDS011;849;48.780;9.216;2022-12-29T09:32:45;6.03;;;0.30;;
1703;SDS011;849;48.780;9.216;2022-12-29T09:35:12;6.07;;;0.30;;
1703;SDS011;849;48.780;9.216;2022-12-29T09:37:38;5.90;;;0.30;;
1703;SDS011;849;48.780;9.216;2022-12-29T09:40:04;5.93;;;0.40;;
1703;SDS011;849;48.780;9.216;2022-12-29T09:47:46;5.77;;;0.30;;
1703;SDS011;849;48.780;9.216;2022-12-29T09:50:34;5.73;;;0.30;;
1703;SDS011;849;48.780;9.216;2022-12-29T09:53:04;5.50;;;0.30;;
1703;SDS011;849;48.780;9.216;2022-12-29T09:55:36;5.60;;;0.50;;
1703;SDS011;849;48.780;9.216;2022-12-29T09:58:09;5.80;;;0.50;;
1703;SDS011;849;48.780;9.216;2022-12-29T10:03:36;5.40;;;0.57;;
1703;SDS011;849;48.780;9.216;2022-12-29T10:06:15;5.20;;;0.30;;
1703;SDS011;849;48.780;9.216;2022-12-29T10:08:57;5.30;;;0.30;;
1703;SDS011;849;48.780;9.216;2022-12-29T10:11:50;5.30;;;0.30;;
1703;SDS011;849;48.780;9.216;2022-12-29T10:17:34;5.57;;;0.37;;
1703;SDS011;849;48.780;9.216;2022-12-29T10:25:56;5.50;;;0.30;;
1703;SDS011;849;48.780;9.216;2022-12-29T10:28:33;5.50;;;0.30;;
1703;SDS011;849;48.780;9.216;2022-12-29T10:31:22;5.60;;;0.30;;
1703;SDS011;849;48.780;9.216;2022-12-29T10:33:49;6.53;;;1.47;;
1703;SDS011;849;48.780;9.216;2022-12-29T10:36:24;6.83;;;0.90;;
1703;SDS011;849;48.780;9.216;2022-12-29T10:39:13;5.80;;;0.80;;
1703;SDS011;849;48.780;9.216;2022-12-29T10:41:46;6.07;;;1.23;;
1703;SDS011;849;48.780;9.216;2022-12-29T10:44:16;5.60;;;0.93;;
1703;SDS011;849;48.780;9.216;2022-12-29T10:46:44;5.27;;;0.40;;
1703;SDS011;849;48.780;9.216;2022-12-29T10:49:20;5.30;;;0.30;;
1703;SDS011;849;48.780;9.216;2022-12-29T10:51:46;6.30;;;1.57;;
1703;SDS011;849;48.780;9.216;2022-12-29T10:54:26;5.40;;;0.30;;
1703;SDS011;849;48.780;9.216;2022-12-29T10:57:08;5.43;;;0.60;;
1703;SDS011;849;48.780;9.216;2022-12-29T10:59:56;5.23;;;0.30;;
1703;SDS011;849;48.780;9.216;2022-12-29T11:02:43;5.53;;;0.80;;
1703;SDS011;849;48.780;9.216;2022-12-29T11:08:30;5.23;;;0.30;;
1703;SDS011;849;48.780;9.216;2022-12-29T11:11:02;5.20;;;0.30;;
1703;SDS011;849;48.780;9.216;2022-12-29T11:13:30;5.27;;;0.40;;
1703;SDS011;849;48.780;9.216;2022-12-29T11:15:58;5.30;;;0.30;;
1703;SDS011;849;48.780;9.216;2022-12-29T11:18:32;5.20;;;0.30;;
1703;SDS011;849;48.780;9.216;2022-12-29T11:21:03;5.00;;;0.30;;
1703;SDS011;849;48.780;9.216;2022-12-29T11:23:31;6.60;;;2.20;;
1703;SDS011;849;48.780;9.216;2022-12-29T11:26:12;5.00;;;0.30;;
1703;SDS011;849;48.780;9.216;2022-12-29T11:28:45;5.00;;;0.30;;
1703;SDS011;849;48.780;9.216;2022-12-29T11:31:16;5.00;;;0.33;;
1703;SDS011;849;48.780;9.216;2022-12-29T11:33:43;4.80;;;0.33;;
1703;SDS011;849;48.780;9.216;2022-12-29T11:36:13;4.50;;;0.30;;
1703;SDS011;849;48.780;9.216;2022-12-29T11:38:42;4.60;;;0.30;;
1703;SDS011;849;48.780;9.216;2022-12-29T11:41:13;5.00;;;0.70;;
1703;SDS011;849;48.780;9.216;2022-12-29T11:43:45;4.80;;;0.50;;
1703;SDS011;849;48.780;9.216;2022-12-29T11:46:34;5.93;;;1.03;;
1703;SDS011;849;48.780;9.216;2022-12-29T11:49:00;5.50;;;0.60;;
1703;SDS011;849;48.780;9.216;2022-12-29T11:51:29;5.60;;;0.30;;
1703;SDS011;849;48.780;9.216;2022-12-29T11:54:27;5.90;;;0.40;;
1703;SDS011;849;48.780;9.216;2022-12-29T11:56:57;5.97;;;0.30;;
1703;SDS011;849;48.780;9.216;2022-12-29T12:01:52;6.27;;;0.70;;
1703;SDS011;849;48.780;9.216;2022-12-29T12:04:21;6.60;;;0.67;;
1703;SDS011;849;48.780;9.216;2022-12-29T12:09:36;6.13;;;0.30;;
1703;SDS011;849;48.780;9.216;2022-12-29T12:12:21;6.20;;;0.30;;
1703;SDS011;849;48.780;9.216;2022-12-29T12:14:55;6.27;;;0.30;;
1703;SDS011;849;48.780;9.216;2022-12-29T12:25:58;6.70;;;0.30;;
1703;SDS011;849;48.780;9.216;2022-12-29T12:28:37;6.50;;;1.37;;
1703;SDS011;849;48.780;9.216;2022-12-29T12:31:19;6.17;;;0.40;;
1703;SDS011;849;48.780;9.216;2022-12-29T12:33:59;6.17;;;0.50;;
1703;SDS011;849;48.780;9.216;2022-12-29T12:41:48;6.20;;;0.30;;
1703;SDS011;849;48.780;9.216;2022-12-29T12:49:44;14.67;;;2.67;;
1703;SDS011;849;48.780;9.216;2022-12-29T12:57:49;6.70;;;0.30;;
1703;SDS011;849;48.780;9.216;2022-12-29T13:01:15;6.90;;;0.67;;
1703;SDS011;849;48.780;9.216;2022-12-29T13:03:47;6.80;;;0.30;;
1703;SDS011;849;48.780;9.216;2022-12-29T13:08:53;6.97;;;0.30;;
1703;SDS011;849;48.780;9.216;2022-12-29T13:19:41;9.20;;;1.23;;
1703;SDS011;849;48.780;9.216;2022-12-29T13:22:33;7.17;;;0.30;;
1703;SDS011;849;48.780;9.216;2022-12-29T13:25:21;7.13;;;0.30;;
1703;SDS011;849;48.780;9.216;2022-12-29T13:28:18;7.20;;;0.30;;
1703;SDS011;849;48.780;9.216;2022-12-29T13:30:59;7.23;;;0.30;;
1703;SDS011;849;48.780;9.216;2022-12-29T13:36:18;7.37;;;0.40;;
1703;SDS011;849;48.780;9.216;2022-12-29T13:39:01;7.27;;;0.30;;
1703;SDS011;849;48.780;9.216;2022-12-29T13:41:31;7.47;;;0.40;;
1703;SDS011;849;48.780;9.216;2022-12-29T13:44:01;7.37;;;0.30;;
1703;SDS011;849;48.780;9.216;2022-12-29T13:46:31;7.40;;;0.30;;
1703;SDS011;849;48.780;9.216;2022-12-29T13:49:20;7.77;;;0.70;;
1703;SDS011;849;48.780;9.216;2022-12-29T13:51:57;7.43;;;0.30;;
1703;SDS011;849;48.780;9.216;2022-12-29T13:54:36;7.50;;;0.50;;
1703;SDS011;849;48.780;9.216;2022-12-29T13:57:07;8.67;;;1.13;;
1703;SDS011;849;48.780;9.216;2022-12-29T13:59:57;7.73;;;0.30;;
1703;SDS011;849;48.780;9.216;2022-12-29T14:07:48;7.67;;;0.30;;
1703;SDS011;849;48.780;9.216;2022-12-29T14:13:17;7.93;;;0.67;;
1703;SDS011;849;48.780;9.216;2022-12-29T14:15:50;7.87;;;0.53;;
1703;SDS011;849;48.780;9.216;2022-12-29T14:18:19;7.93;;;0.30;;
1703;SDS011;849;48.780;9.216;2022-12-29T14:21:07;8.03;;;0.30;;
1703;SDS011;849;48.780;9.216;2022-12-29T14:23:41;8.00;;;0.30;;
1703;SDS011;849;48.780;9.216;2022-12-29T14:26:15;8.50;;;0.83;;
1703;SDS011;849;48.780;9.216;2022-12-29T14:28:46;7.97;;;0.30;;
1703;SDS011;849;48.780;9.216;2022-12-29T14:34:14;8.07;;;0.40;;
1703;SDS011;849;48.780;9.216;2022-12-29T14:36:56;7.97;;;0.40;;
1703;SDS011;849;48.780;9.216;2022-12-29T14:42:03;8.17;;;0.30;;
1703;SDS011;849;48.780;9.216;2022-12-29T14:44:31;8.07;;;0.30;;
1703;SDS011;849;48.780;9.216;2022-12-29T14:46:59;9.37;;;0.60;;
1703;SDS011;849;48.780;9.216;2022-12-29T14:49:30;8.10;;;0.30;;
1703;SDS011;849;48.780;9.216;2022-12-29T14:57:18;8.23;;;0.30;;
1703;SDS011;849;48.780;9.216;2022-12-29T14:59:58;8.33;;;0.40;;
1703;SDS011;849;48.780;9.216;2022-12-29T15:02:32;8.37;;;0.57;;
1703;SDS011;849;48.780;9.216;2022-12-29T15:05:03;8.23;;;0.40;;
1703;SDS011;849;48.780;9.216;2022-12-29T15:07:31;8.33;;;0.40;;
1703;SDS011;849;48.780;9.216;2022-12-29T15:10:00;8.30;;;0.30;;
1703;SDS011;849;48.780;9.216;2022-12-29T15:15:16;8.27;;;0.40;;
1703;SDS011;849;48.780;9.216;2022-12-29T15:17:44;8.27;;;0.40;;
1703;SDS011;849;48.780;9.216;2022-12-29T15:23:29;8.30;;;0.30;;
1703;SDS011;849;48.780;9.216;2022-12-29T15:25:36;8.27;;;0.30;;
1703;SDS011;849;48.780;9.216;2022-12-29T15:28:12;8.27;;;0.30;;
1703;SDS011;849;48.780;9.216;2022-12-29T15:30:49;8.27;;;0.30;;
1703;SDS011;849;48.780;9.216;2022-12-29T15:33:20;8.27;;;0.40;;
1703;SDS011;849;48.780;9.216;2022-12-29T15:35:51;8.30;;;0.30;;
1703;SDS011;849;48.780;9.216;2022-12-29T15:38:21;8.30;;;0.30;;
1703;SDS011;849;48.780;9.216;2022-12-29T15:40:54;8.30;;;0.37;;
1703;SDS011;849;48.780;9.216;2022-12-29T15:46:06;8.27;;;0.40;;
1703;SDS011;849;48.780;9.216;2022-12-29T15:48:32;8.27;;;0.30;;
1703;SDS011;849;48.780;9.216;2022-12-29T15:50:58;8.23;;;0.30;;
1703;SDS011;849;48.780;9.216;2022-12-29T15:53:28;8.23;;;0.30;;
1703;SDS011;849;48.780;9.216;2022-12-29T15:56:00;8.20;;;0.30;;
1703;SDS011;849;48.780;9.216;2022-12-29T15:58:31;8.00;;;0.40;;
1703;SDS011;849;48.780;9.216;2022-12-29T16:01:32;8.00;;;0.30;;
1703;SDS011;849;48.780;9.216;2022-12-29T16:04:00;8.07;;;0.40;;
1703;SDS011;849;48.780;9.216;2022-12-29T16:06:39;8.33;;;0.53;;
1703;SDS011;849;48.780;9.216;2022-12-29T16:09:14;8.40;;;0.30;;
1703;SDS011;849;48.780;9.216;2022-12-29T16:11:50;8.87;;;0.40;;
1703;SDS011;849;48.780;9.216;2022-12-29T16:14:21;8.83;;;0.30;;
1703;SDS011;849;48.780;9.216;2022-12-29T16:16:55;9.20;;;0.30;;
1703;SDS011;849;48.780;9.216;2022-12-29T16:19:24;8.93;;;0.40;;
1703;SDS011;849;48.780;9.216;2022-12-29T16:21:54;8.87;;;0.40;;
1703;SDS011;849;48.780;9.216;2022-12-29T16:24:25;9.20;;;0.50;;
1703;SDS011;849;48.780;9.216;2022-12-29T16:29:52;9.63;;;0.30;;
1703;SDS011;849;48.780;9.216;2022-12-29T16:32:30;9.33;;;0.30;;
1703;SDS011;849;48.780;9.216;2022-12-29T16:37:29;9.40;;;0.30;;
1703;SDS011;849;48.780;9.216;2022-12-29T16:40:13;9.63;;;0.40;;
1703;SDS011;849;48.780;9.216;2022-12-29T16:45:28;9.83;;;0.30;;
1703;SDS011;849;48.780;9.216;2022-12-29T16:48:29;10.03;;;0.30;;
1703;SDS011;849;48.780;9.216;2022-12-29T16:53:32;10.07;;;0.30;;
1703;SDS011;849;48.780;9.216;2022-12-29T16:56:08;10.27;;;0.40;;
1703;SDS011;849;48.780;9.216;2022-12-29T16:58:47;10.03;;;0.40;;
1703;SDS011;849;48.780;9.216;2022-12-29T17:01:15;10.03;;;0.40;;
1703;SDS011;849;48.780;9.216;2022-12-29T17:03:46;10.07;;;0.30;;
1703;SDS011;849;48.780;9.216;2022-12-29T17:06:16;10.27;;;0.40;;
1703;SDS011;849;48.780;9.216;2022-12-29T17:08:43;10.37;;;0.30;;
1703;SDS011;849;48.780;9.216;2022-12-29T17:14:41;10.47;;;0.40;;
1703;SDS011;849;48.780;9.216;2022-12-29T17:17:32;10.43;;;0.40;;
1703;SDS011;849;48.780;9.216;2022-12-29T17:20:13;11.20;;;1.77;;
1703;SDS011;849;48.780;9.216;2022-12-29T17:22:50;10.60;;;0.40;;
1703;SDS011;849;48.780;9.216;2022-12-29T17:25:30;10.73;;;0.40;;
1703;SDS011;849;48.780;9.216;2022-12-29T17:27:59;10.87;;;0.40;;
1703;SDS011;849;48.780;9.216;2022-12-29T17:30:31;10.90;;;0.40;;
1703;SDS011;849;48.780;9.216;2022-12-29T17:32:59;11.07;;;0.40;;
1703;SDS011;849;48.780;9.216;2022-12-29T17:35:27;11.57;;;0.40;;
1703;SDS011;849;48.780;9.216;2022-12-29T17:37:53;11.63;;;0.40;;
1703;SDS011;849;48.780;9.216;2022-12-29T17:40:19;11.77;;;0.40;;
1703;SDS011;849;48.780;9.216;2022-12-29T17:42:51;11.77;;;0.40;;
1703;SDS011;849;48.780;9.216;2022-12-29T17:45:23;11.73;;;0.40;;
1703;SDS011;849;48.780;9.216;2022-12-29T17:47:50;11.67;;;0.40;;
1703;SDS011;849;48.780;9.216;2022-12-29T17:50:17;11.97;;;0.40;;
1703;SDS011;849;48.780;9.216;2022-12-29T17:52:50;12.07;;;0.40;;
1703;SDS011;849;48.780;9.216;2022-12-29T17:55:18;12.07;;;0.40;;
1703;SDS011;849;48.780;9.216;2022-12-29T17:57:45;12.07;;;0.40;;
1703;SDS011;849;48.780;9.216;2022-12-29T18:00:18;12.03;;;0.40;;
1703;SDS011;849;48.780;9.216;2022-12-29T18:02:51;12.07;;;0.40;;
1703;SDS011;849;48.780;9.216;2022-12-29T18:05:19;12.27;;;0.40;;